createdAt,value
2022-11-05T00:03:07.104Z,15.32
2022-11-05T00:06:06.783Z,15.35
2022-11-05T00:08:56.261Z,15.75
2022-11-05T00:11:47.086Z,16.42
2022-11-05T00:14:36.068Z,15.65
2022-11-05T00:17:06.960Z,15.85
2022-11-05T00:22:39.738Z,16.33
2022-11-05T00:25:20.067Z,16.35
2022-11-05T00:27:55.289Z,15.52
2022-11-05T00:30:28.842Z,15.05
2022-11-05T00:33:06.585Z,14.95
2022-11-05T00:35:37.611Z,14.50
2022-11-05T00:38:12.255Z,16.05
2022-11-05T00:40:43.155Z,14.70
2022-11-05T00:43:32.082Z,14.15
2022-11-05T00:46:03.171Z,15.23
2022-11-05T00:48:52.070Z,15.10
2022-11-05T00:51:23.007Z,15.82
2022-11-05T00:53:54.146Z,14.93
2022-11-05T00:56:25.248Z,15.60
2022-11-05T00:58:57.436Z,15.48
2022-11-05T01:01:28.419Z,16.90
2022-11-05T01:03:59.538Z,16.27
2022-11-05T01:06:30.547Z,16.70
2022-11-05T01:09:01.431Z,15.05
2022-11-05T01:11:35.250Z,14.88
2022-11-05T01:16:39.199Z,14.95
2022-11-05T01:19:12.070Z,15.35
2022-11-05T01:21:43.074Z,15.65
2022-11-05T01:24:14.106Z,16.27
2022-11-05T01:26:45.204Z,15.45
2022-11-05T01:29:16.425Z,15.57
2022-11-05T01:31:47.615Z,16.27
2022-11-05T01:34:24.690Z,15.68
2022-11-05T01:36:55.544Z,16.30
2022-11-05T01:39:26.347Z,15.32
2022-11-05T01:42:00.216Z,15.75
2022-11-05T01:47:48.856Z,15.48
2022-11-05T01:51:03.453Z,15.68
2022-11-05T01:53:55.721Z,15.75
2022-11-05T01:56:34.371Z,15.98
2022-11-05T01:59:22.802Z,15.80
2022-11-05T02:02:14.018Z,16.17
2022-11-05T02:04:50.321Z,15.95
2022-11-05T02:07:21.786Z,15.98
2022-11-05T02:10:19.437Z,15.48
2022-11-05T02:12:50.698Z,15.50
2022-11-05T02:15:49.972Z,15.93
2022-11-05T02:18:45.156Z,16.65
2022-11-05T02:21:57.486Z,15.63
2022-11-05T02:25:02.694Z,17.50
2022-11-05T02:27:56.729Z,16.00
2022-11-05T02:30:51.061Z,17.08
2022-11-05T02:33:30.176Z,16.30
2022-11-05T02:36:22.700Z,17.05
2022-11-05T02:39:33.379Z,16.88
2022-11-05T02:42:30.013Z,16.98
2022-11-05T02:45:06.661Z,17.15
2022-11-05T02:48:01.740Z,16.42
2022-11-05T02:50:41.493Z,16.38
2022-11-05T02:53:21.784Z,17.05
2022-11-05T02:56:15.927Z,16.75
2022-11-05T02:58:46.932Z,17.50
2022-11-05T03:01:17.978Z,18.05
2022-11-05T03:04:04.120Z,17.10
2022-11-05T03:06:53.014Z,17.65
2022-11-05T03:09:48.895Z,16.40
2022-11-05T03:13:03.760Z,16.55
2022-11-05T03:15:58.465Z,16.35
2022-11-05T03:19:00.267Z,16.38
2022-11-05T03:21:42.647Z,16.88
2022-11-05T03:24:25.515Z,17.05
2022-11-05T03:27:09.735Z,15.70
2022-11-05T03:30:00.096Z,15.68
2022-11-05T03:33:02.116Z,16.92
2022-11-05T03:35:45.643Z,17.08
2022-11-05T03:38:32.577Z,17.52
2022-11-05T03:41:07.799Z,16.58
2022-11-05T03:43:44.060Z,17.63
2022-11-05T03:46:29.502Z,18.23
2022-11-05T03:49:05.412Z,16.85
2022-11-05T03:51:55.902Z,17.13
2022-11-05T03:54:28.181Z,17.20
2022-11-05T03:57:14.375Z,16.88
2022-11-05T03:59:47.595Z,17.48
2022-11-05T04:02:21.562Z,16.08
2022-11-05T04:04:52.523Z,18.13
2022-11-05T04:08:01.823Z,17.42
2022-11-05T04:10:51.044Z,17.48
2022-11-05T04:13:28.067Z,16.88
2022-11-05T04:16:17.542Z,16.52
2022-11-05T04:18:51.416Z,16.83
2022-11-05T04:24:11.096Z,16.63
2022-11-05T04:26:46.668Z,16.85
2022-11-05T04:29:35.780Z,17.75
2022-11-05T04:32:07.699Z,16.88
2022-11-05T04:34:38.884Z,16.77
2022-11-05T04:37:09.726Z,16.63
2022-11-05T04:39:40.533Z,16.83
2022-11-05T04:42:17.958Z,16.27
2022-11-05T04:44:48.839Z,16.92
2022-11-05T04:47:19.613Z,16.50
2022-11-05T04:49:51.798Z,17.63
2022-11-05T04:52:25.436Z,16.15
2022-11-05T04:54:56.569Z,16.27
2022-11-05T04:57:27.700Z,17.67
2022-11-05T04:59:59.127Z,16.27
2022-11-05T05:02:33.423Z,17.23
2022-11-05T05:05:16.047Z,17.58
2022-11-05T05:07:47.769Z,16.37
2022-11-05T05:10:18.692Z,18.35
2022-11-05T05:12:49.763Z,16.70
2022-11-05T05:15:20.745Z,17.38
2022-11-05T05:18:11.446Z,16.75
2022-11-05T05:21:00.387Z,16.20
2022-11-05T05:23:31.445Z,16.92
2022-11-05T05:26:02.569Z,17.00
2022-11-05T05:28:33.689Z,16.17
2022-11-05T05:31:04.758Z,17.85
2022-11-05T05:33:35.658Z,17.90
2022-11-05T05:36:11.082Z,16.88
2022-11-05T05:38:42.502Z,17.42
2022-11-05T05:41:36.184Z,17.50
2022-11-05T05:44:08.204Z,15.70
2022-11-05T05:47:00.074Z,17.48
2022-11-05T05:49:30.930Z,17.00
2022-11-05T05:52:01.957Z,16.60
2022-11-05T05:54:39.762Z,17.05
2022-11-05T05:57:13.290Z,17.90
2022-11-05T05:59:45.457Z,17.05
2022-11-05T06:02:17.146Z,17.08
2022-11-05T06:04:48.233Z,16.83
2022-11-05T06:07:19.415Z,17.98
2022-11-05T06:09:50.579Z,18.63
2022-11-05T06:12:21.693Z,19.10
2022-11-05T06:14:52.696Z,17.67
2022-11-05T06:17:23.897Z,15.80
2022-11-05T06:19:54.987Z,17.95
2022-11-05T06:22:26.083Z,17.65
2022-11-05T06:24:56.934Z,18.05
2022-11-05T06:27:27.831Z,17.17
2022-11-05T06:29:58.854Z,17.27
2022-11-05T06:32:30.261Z,17.25
2022-11-05T06:35:01.297Z,16.10
2022-11-05T06:37:37.170Z,16.80
2022-11-05T06:40:10.676Z,16.75
2022-11-05T06:42:41.762Z,16.20
2022-11-05T06:45:32.692Z,17.05
2022-11-05T06:48:04.022Z,17.63
2022-11-05T06:50:35.335Z,17.45
2022-11-05T06:53:09.596Z,17.67
2022-11-05T06:55:40.757Z,17.02
2022-11-05T06:58:12.204Z,19.23
2022-11-05T07:00:43.288Z,18.23
2022-11-05T07:03:15.366Z,17.73
2022-11-05T07:05:49.683Z,17.92
2022-11-05T07:08:21.103Z,18.08
2022-11-05T07:13:36.257Z,18.40
2022-11-05T07:16:07.567Z,17.40
2022-11-05T07:18:38.712Z,17.25
2022-11-05T07:21:09.685Z,18.95
2022-11-05T07:23:40.773Z,18.27
2022-11-05T07:26:11.607Z,17.90
2022-11-05T07:28:42.673Z,18.38
2022-11-05T07:31:13.569Z,17.52
2022-11-05T07:33:44.371Z,17.67
2022-11-05T07:36:16.312Z,18.05
2022-11-05T07:38:47.225Z,16.88
2022-11-05T07:41:18.455Z,18.17
2022-11-05T07:43:49.314Z,19.15
2022-11-05T07:46:20.173Z,18.67
2022-11-05T07:48:51.103Z,18.58
2022-11-05T07:51:22.285Z,17.80
2022-11-05T07:53:53.082Z,19.58
2022-11-05T07:56:46.362Z,17.70
2022-11-05T07:59:17.461Z,17.67
2022-11-05T08:01:48.678Z,18.33
2022-11-05T08:04:19.699Z,18.23
2022-11-05T08:06:50.749Z,19.00
2022-11-05T08:09:21.801Z,17.60
2022-11-05T08:11:53.307Z,18.23
2022-11-05T08:14:25.163Z,17.95
2022-11-05T08:16:56.324Z,18.52
2022-11-05T08:19:27.492Z,18.55
2022-11-05T08:21:58.338Z,18.10
2022-11-05T08:24:29.343Z,18.45
2022-11-05T08:27:00.366Z,19.02
2022-11-05T08:29:31.335Z,18.33
2022-11-05T08:32:02.229Z,18.85
2022-11-05T08:34:33.182Z,19.10
2022-11-05T08:37:04.585Z,18.35
2022-11-05T08:39:35.443Z,18.20
2022-11-05T08:42:06.377Z,19.17
2022-11-05T08:44:37.485Z,18.98
2022-11-05T08:47:11.635Z,19.15
2022-11-05T08:49:42.409Z,18.35
2022-11-05T08:52:13.414Z,18.98
2022-11-05T08:54:44.951Z,18.15
2022-11-05T08:57:15.981Z,19.50
2022-11-05T08:59:47.232Z,19.20
2022-11-05T09:02:18.459Z,19.67
2022-11-05T09:04:49.634Z,20.70
2022-11-05T09:07:20.717Z,19.10
2022-11-05T09:09:51.667Z,18.40
2022-11-05T09:12:22.560Z,18.70
2022-11-05T09:14:53.381Z,18.95
2022-11-05T09:17:24.885Z,19.05
2022-11-05T09:19:55.769Z,19.58
2022-11-05T09:22:49.280Z,20.17
2022-11-05T09:25:20.438Z,19.27
2022-11-05T09:27:51.597Z,19.90
2022-11-05T09:30:22.813Z,20.40
2022-11-05T09:32:53.798Z,19.98
2022-11-05T09:35:43.354Z,19.63
2022-11-05T09:38:14.442Z,19.30
2022-11-05T09:41:09.643Z,20.50
2022-11-05T09:43:44.925Z,19.60
2022-11-05T09:46:45.022Z,19.38
2022-11-05T09:49:48.158Z,19.33
2022-11-05T09:52:25.914Z,19.52
2022-11-05T09:54:58.005Z,20.02
2022-11-05T09:57:34.840Z,19.88
2022-11-05T10:00:10.024Z,19.27
2022-11-05T10:02:58.750Z,20.23
2022-11-05T10:05:30.540Z,19.13
2022-11-05T10:08:20.244Z,20.15
2022-11-05T10:10:56.850Z,19.65
2022-11-05T10:13:56.270Z,20.15
2022-11-05T10:16:36.876Z,20.17
2022-11-05T10:19:23.585Z,19.48
2022-11-05T10:22:21.102Z,19.85
2022-11-05T10:24:54.020Z,19.88
2022-11-05T10:27:39.066Z,20.58
2022-11-05T10:30:12.374Z,20.08
2022-11-05T10:32:44.723Z,19.98
2022-11-05T10:35:40.433Z,19.63
2022-11-05T10:38:16.877Z,19.95
2022-11-05T10:41:10.999Z,20.02
2022-11-05T10:43:54.162Z,19.17
2022-11-05T10:46:25.211Z,19.80
2022-11-05T10:48:56.311Z,21.60
2022-11-05T10:51:27.924Z,20.00
2022-11-05T10:54:07.150Z,20.73
2022-11-05T10:56:41.027Z,21.15
2022-11-05T10:59:30.081Z,20.48
2022-11-05T11:02:23.553Z,20.33
2022-11-05T11:04:56.801Z,20.27
2022-11-05T11:07:28.911Z,21.83
2022-11-05T11:09:59.933Z,20.63
2022-11-05T11:12:41.232Z,19.80
2022-11-05T11:15:25.746Z,20.30
2022-11-05T11:17:58.366Z,20.23
2022-11-05T11:20:34.182Z,20.05
2022-11-05T11:23:15.568Z,19.70
2022-11-05T11:26:02.312Z,19.80
2022-11-05T11:28:53.193Z,20.25
2022-11-05T11:31:30.261Z,20.90
2022-11-05T11:34:08.927Z,20.63
2022-11-05T11:36:48.349Z,19.55
2022-11-05T11:39:27.479Z,21.25
2022-11-05T11:42:02.106Z,19.77
2022-11-05T11:44:38.678Z,18.38
2022-11-05T11:47:16.347Z,20.00
2022-11-05T11:50:18.446Z,20.55
2022-11-05T11:52:49.404Z,21.23
2022-11-05T11:55:24.821Z,20.10
2022-11-05T11:58:12.008Z,20.73
2022-11-05T12:00:51.377Z,19.80
2022-11-05T12:03:27.024Z,19.38
2022-11-05T12:06:13.748Z,19.90
2022-11-05T12:09:09.097Z,20.75
2022-11-05T12:12:04.582Z,18.38
2022-11-05T12:14:50.367Z,20.40
2022-11-05T12:20:32.411Z,21.05
2022-11-05T12:23:22.076Z,21.65
2022-11-05T12:26:09.502Z,21.27
2022-11-05T12:29:16.763Z,21.38
2022-11-05T12:32:01.824Z,21.40
2022-11-05T12:35:08.117Z,22.02
2022-11-05T12:37:57.142Z,21.35
2022-11-05T12:40:40.073Z,22.20
2022-11-05T12:43:50.884Z,21.95
2022-11-05T12:46:52.138Z,22.45
2022-11-05T12:49:43.822Z,22.55
2022-11-05T12:52:45.219Z,22.63
2022-11-05T12:55:25.928Z,21.98
2022-11-05T12:58:29.675Z,22.95
2022-11-05T13:01:17.266Z,21.60
2022-11-05T13:04:19.777Z,22.05
2022-11-05T13:06:54.947Z,22.13
2022-11-05T13:09:36.447Z,21.65
2022-11-05T13:12:14.730Z,20.70
2022-11-05T13:15:01.320Z,22.17
2022-11-05T13:17:55.729Z,22.33
2022-11-05T13:23:22.864Z,21.85
2022-11-05T13:26:05.016Z,21.73
2022-11-05T13:29:01.367Z,22.50
2022-11-05T13:32:06.706Z,22.10
2022-11-05T13:34:38.698Z,20.48
2022-11-05T13:37:31.154Z,22.65
2022-11-05T13:40:08.769Z,21.20
2022-11-05T13:42:58.148Z,20.85
2022-11-05T13:45:47.818Z,23.10
2022-11-05T13:48:51.093Z,22.88
2022-11-05T13:51:43.399Z,20.85
2022-11-05T13:54:39.238Z,21.90
2022-11-05T13:57:48.323Z,21.92
2022-11-05T14:00:25.592Z,21.23
2022-11-05T14:03:21.048Z,21.38
2022-11-05T14:05:58.107Z,21.83
2022-11-05T14:08:30.771Z,21.08
2022-11-05T14:11:35.767Z,21.55
2022-11-05T14:14:46.399Z,22.55
2022-11-05T14:17:28.194Z,22.45
2022-11-05T14:20:24.676Z,22.08
2022-11-05T14:23:16.039Z,21.90
2022-11-05T14:25:47.995Z,22.45
2022-11-05T14:28:37.851Z,21.65
2022-11-05T14:31:54.534Z,20.75
2022-11-05T14:34:50.867Z,21.83
2022-11-05T14:37:38.312Z,21.60
2022-11-05T14:40:25.070Z,21.73
2022-11-05T14:43:09.337Z,21.02
2022-11-05T14:46:31.762Z,20.85
2022-11-05T14:49:11.145Z,19.92
2022-11-05T14:51:47.667Z,21.83
2022-11-05T14:54:39.081Z,21.70
2022-11-05T14:57:13.411Z,21.48
2022-11-05T15:00:00.231Z,21.73
2022-11-05T15:02:39.564Z,21.42
2022-11-05T15:05:39.529Z,22.17
2022-11-05T15:08:38.532Z,22.08
2022-11-05T15:11:27.394Z,22.02
2022-11-05T15:14:22.189Z,21.77
2022-11-05T15:17:17.580Z,21.80
2022-11-05T15:19:49.956Z,22.10
2022-11-05T15:22:31.768Z,23.30
2022-11-05T15:25:03.367Z,22.40
2022-11-05T15:27:49.482Z,21.15
2022-11-05T15:30:23.900Z,22.05
2022-11-05T15:32:55.377Z,21.85
2022-11-05T15:35:31.812Z,22.48
2022-11-05T15:38:03.128Z,21.92
2022-11-05T15:40:36.168Z,21.33
2022-11-05T15:43:12.831Z,21.17
2022-11-05T15:46:04.071Z,22.83
2022-11-05T15:48:38.749Z,21.88
2022-11-05T15:51:32.479Z,21.88
2022-11-05T15:57:02.246Z,22.50
2022-11-05T15:59:33.827Z,22.13
2022-11-05T16:02:19.957Z,21.50
2022-11-05T16:04:55.048Z,22.23
2022-11-05T16:07:26.656Z,22.30
2022-11-05T16:10:01.278Z,21.70
2022-11-05T16:12:42.099Z,22.83
2022-11-05T16:15:13.180Z,22.45
2022-11-05T16:17:54.749Z,21.35
2022-11-05T16:20:33.559Z,21.92
2022-11-05T16:23:41.945Z,21.67
2022-11-05T16:27:01.156Z,22.92
2022-11-05T16:29:35.576Z,21.25
2022-11-05T16:32:21.371Z,22.60
2022-11-05T16:35:02.852Z,21.70
2022-11-05T16:37:45.182Z,21.45
2022-11-05T16:40:27.567Z,22.13
2022-11-05T16:43:17.396Z,22.33
2022-11-05T16:46:13.437Z,22.38
2022-11-05T16:48:47.221Z,21.90
2022-11-05T16:53:52.319Z,22.15
2022-11-05T16:56:24.943Z,22.52
2022-11-05T16:58:56.515Z,23.00
2022-11-05T17:01:29.275Z,22.23
2022-11-05T17:04:00.390Z,21.52
2022-11-05T17:06:31.266Z,21.55
2022-11-05T17:09:02.365Z,21.58
2022-11-05T17:11:33.480Z,21.42
2022-11-05T17:14:24.259Z,22.38
2022-11-05T17:16:55.528Z,22.33
2022-11-05T17:19:26.673Z,21.15
2022-11-05T17:21:58.151Z,21.55
2022-11-05T17:24:29.269Z,22.38
2022-11-05T17:27:00.336Z,21.52
2022-11-05T17:29:32.456Z,21.95
2022-11-05T17:32:03.410Z,21.10
2022-11-05T17:34:55.914Z,21.45
2022-11-05T17:37:26.786Z,22.60
2022-11-05T17:39:57.801Z,21.23
2022-11-05T17:42:48.599Z,21.75
2022-11-05T17:45:20.419Z,22.25
2022-11-05T17:47:51.482Z,22.10
2022-11-05T17:50:23.140Z,21.83
2022-11-05T17:52:53.951Z,21.20
2022-11-05T17:55:24.828Z,21.40
2022-11-05T17:57:55.926Z,21.17
2022-11-05T18:00:27.471Z,21.92
2022-11-05T18:03:01.142Z,20.80
2022-11-05T18:05:33.514Z,20.95
2022-11-05T18:08:04.635Z,21.27
2022-11-05T18:10:38.453Z,21.02
2022-11-05T18:15:42.455Z,20.95
2022-11-05T18:18:13.638Z,22.25
2022-11-05T18:20:44.927Z,20.60
2022-11-05T18:23:16.230Z,20.63
2022-11-05T18:25:47.278Z,22.20
2022-11-05T18:28:18.147Z,21.35
2022-11-05T18:30:49.905Z,21.02
2022-11-05T18:33:20.713Z,22.85
2022-11-05T18:35:51.508Z,22.13
2022-11-05T18:38:22.639Z,22.35
2022-11-05T18:40:53.726Z,21.48
2022-11-05T18:43:24.571Z,21.80
2022-11-05T18:45:59.076Z,20.55
2022-11-05T18:48:30.076Z,22.45
2022-11-05T18:51:02.007Z,20.65
2022-11-05T18:53:33.264Z,21.48
2022-11-05T18:56:13.065Z,22.75
2022-11-05T18:58:44.754Z,22.80
2022-11-05T19:01:21.537Z,22.20
2022-11-05T19:03:53.052Z,21.75
2022-11-05T19:06:26.233Z,21.25
2022-11-05T19:09:00.117Z,22.38
2022-11-05T19:14:14.915Z,21.25
2022-11-05T19:16:46.167Z,22.15
2022-11-05T19:19:17.562Z,22.55
2022-11-05T19:21:48.907Z,21.15
2022-11-05T19:24:20.140Z,21.52
2022-11-05T19:26:51.710Z,22.25
2022-11-05T19:29:22.747Z,22.08
2022-11-05T19:31:53.686Z,21.17
2022-11-05T19:34:24.984Z,21.88
2022-11-05T19:36:55.837Z,21.67
2022-11-05T19:39:26.788Z,21.05
2022-11-05T19:42:03.744Z,22.08
2022-11-05T19:44:35.695Z,22.08
2022-11-05T19:47:07.548Z,20.52
2022-11-05T19:49:38.449Z,22.15
2022-11-05T19:52:09.603Z,22.08
2022-11-05T19:57:27.350Z,22.80
2022-11-05T19:59:58.287Z,22.25
2022-11-05T20:02:49.318Z,21.17
2022-11-05T20:05:20.391Z,22.05
2022-11-05T20:07:52.931Z,21.30
2022-11-05T20:10:24.379Z,21.80
2022-11-05T20:12:55.421Z,22.20
2022-11-05T20:15:26.303Z,22.00
2022-11-05T20:18:19.715Z,21.10
2022-11-05T20:20:50.940Z,21.77
2022-11-05T20:23:21.778Z,22.20
2022-11-05T20:25:55.050Z,22.05
2022-11-05T20:28:26.212Z,23.00
2022-11-05T20:31:02.138Z,21.45
2022-11-05T20:33:33.099Z,22.38
2022-11-05T20:36:06.861Z,21.27
2022-11-05T20:41:29.368Z,20.88
2022-11-05T20:44:01.381Z,21.88
2022-11-05T20:46:32.245Z,22.92
2022-11-05T20:49:03.181Z,21.80
2022-11-05T20:51:34.265Z,21.88
2022-11-05T20:54:05.653Z,21.05
2022-11-05T20:56:37.231Z,22.02
2022-11-05T20:59:08.303Z,22.48
2022-11-05T21:01:39.419Z,21.27
2022-11-05T21:04:10.628Z,21.75
2022-11-05T21:07:02.668Z,21.60
2022-11-05T21:09:33.736Z,22.50
2022-11-05T21:12:13.980Z,21.13
2022-11-05T21:15:04.565Z,21.17
2022-11-05T21:17:58.060Z,22.00
2022-11-05T21:20:28.965Z,22.33
2022-11-05T21:23:01.205Z,22.00
2022-11-05T21:25:32.089Z,21.60
2022-11-05T21:28:03.671Z,22.42
2022-11-05T21:30:35.073Z,22.10
2022-11-05T21:33:09.499Z,20.58
2022-11-05T21:35:45.441Z,22.45
2022-11-05T21:38:18.555Z,21.52
2022-11-05T21:40:50.189Z,21.30
2022-11-05T21:46:07.928Z,22.23
2022-11-05T21:48:39.904Z,22.13
2022-11-05T21:51:30.042Z,22.48
2022-11-05T21:54:20.633Z,21.63
2022-11-05T21:57:10.943Z,21.83
2022-11-05T21:59:52.971Z,21.92
2022-11-05T22:02:46.815Z,21.95
2022-11-05T22:05:18.064Z,22.70
2022-11-05T22:07:49.178Z,21.95
2022-11-05T22:10:20.366Z,20.73
2022-11-05T22:13:11.098Z,22.00
2022-11-05T22:15:42.361Z,22.77
2022-11-05T22:18:13.801Z,21.92
2022-11-05T22:20:45.168Z,21.52
2022-11-05T22:23:16.010Z,22.73
2022-11-05T22:25:47.082Z,22.73
2022-11-05T22:28:17.945Z,21.35
2022-11-05T22:30:48.818Z,22.52
2022-11-05T22:33:20.009Z,21.55
2022-11-05T22:35:51.031Z,22.25
2022-11-05T22:38:21.948Z,23.08
2022-11-05T22:40:52.969Z,23.15
2022-11-05T22:43:24.132Z,22.75
2022-11-05T22:45:55.187Z,23.30
2022-11-05T22:48:26.045Z,22.38
2022-11-05T22:51:21.919Z,21.83
2022-11-05T22:53:52.951Z,22.17
2022-11-05T22:56:26.112Z,21.90
2022-11-05T22:58:57.900Z,21.58
2022-11-05T23:01:30.015Z,22.73
2022-11-05T23:04:01.613Z,22.38
2022-11-05T23:06:53.265Z,21.60
2022-11-05T23:09:43.710Z,22.20
2022-11-05T23:12:34.434Z,22.27
2022-11-05T23:15:07.825Z,21.90
2022-11-05T23:17:57.027Z,22.92
2022-11-05T23:20:46.248Z,21.48
2022-11-05T23:23:38.470Z,21.15
2022-11-05T23:26:29.748Z,22.52
2022-11-05T23:29:00.748Z,21.75
2022-11-05T23:31:49.742Z,22.23
2022-11-05T23:34:20.782Z,23.08
2022-11-05T23:37:09.368Z,22.63
2022-11-05T23:39:42.873Z,22.33
2022-11-05T23:45:20.526Z,21.65
2022-11-05T23:48:09.559Z,21.55
2022-11-05T23:50:42.373Z,22.70
2022-11-05T23:53:13.925Z,22.98
2022-11-05T23:56:08.850Z,23.73
2022-11-05T23:59:00.027Z,22.98
